sensor_id;sensor_type;location;lat;lon;timestamp;pressure;altitude;pressure_sealevel;temperature
18713;BMP280;9485;49.386;8.674;2023-06-14T00:00:58;99895.53;;;23.36
18713;BMP280;9485;49.386;8.674;2023-06-14T00:06:20;99893.22;;;23.35
18713;BMP280;9485;49.386;8.674;2023-06-14T00:11:44;99885.19;;;23.33
18713;BMP280;9485;49.386;8.674;2023-06-14T00:17:04;99876.38;;;23.31
18713;BMP280;9485;49.386;8.674;2023-06-14T00:22:27;99877.78;;;23.30
18713;BMP280;9485;49.386;8.674;2023-06-14T00:27:50;99873.50;;;23.31
18713;BMP280;9485;49.386;8.674;2023-06-14T00:33:10;99866.81;;;23.29
18713;BMP280;9485;49.386;8.674;2023-06-14T00:38:32;99869.69;;;23.29
18713;BMP280;9485;49.386;8.674;2023-06-14T00:43:53;99864.66;;;23.20
18713;BMP280;9485;49.386;8.674;2023-06-14T00:49:17;99867.97;;;23.16
18713;BMP280;9485;49.386;8.674;2023-06-14T00:54:40;99862.47;;;23.11
18713;BMP280;9485;49.386;8.674;2023-06-14T01:00:00;99862.91;;;23.07
18713;BMP280;9485;49.386;8.674;2023-06-14T01:05:21;99867.13;;;23.06
18713;BMP280;9485;49.386;8.674;2023-06-14T01:10:52;99856.81;;;23.03
18713;BMP280;9485;49.386;8.674;2023-06-14T01:16:15;99862.03;;;22.97
18713;BMP280;9485;49.386;8.674;2023-06-14T01:21:36;99854.25;;;22.90
18713;BMP280;9485;49.386;8.674;2023-06-14T01:27:03;99856.66;;;22.84
18713;BMP280;9485;49.386;8.674;2023-06-14T01:32:26;99865.28;;;22.84
18713;BMP280;9485;49.386;8.674;2023-06-14T01:37:48;99865.09;;;22.82
18713;BMP280;9485;49.386;8.674;2023-06-14T01:43:13;99870.38;;;22.76
18713;BMP280;9485;49.386;8.674;2023-06-14T01:48:34;99870.66;;;22.71
18713;BMP280;9485;49.386;8.674;2023-06-14T01:53:56;99863.84;;;22.59
18713;BMP280;9485;49.386;8.674;2023-06-14T01:59:18;99863.72;;;22.57
18713;BMP280;9485;49.386;8.674;2023-06-14T02:04:39;99863.53;;;22.55
18713;BMP280;9485;49.386;8.674;2023-06-14T02:09:59;99861.81;;;22.52
18713;BMP280;9485;49.386;8.674;2023-06-14T02:15:21;99871.66;;;22.49
18713;BMP280;9485;49.386;8.674;2023-06-14T02:20:42;99864.81;;;22.45
18713;BMP280;9485;49.386;8.674;2023-06-14T02:26:05;99871.72;;;22.42
18713;BMP280;9485;49.386;8.674;2023-06-14T02:31:29;99860.81;;;22.40
18713;BMP280;9485;49.386;8.674;2023-06-14T02:36:50;99861.41;;;22.39
18713;BMP280;9485;49.386;8.674;2023-06-14T02:42:12;99871.81;;;22.34
18713;BMP280;9485;49.386;8.674;2023-06-14T02:47:36;99852.13;;;22.23
18713;BMP280;9485;49.386;8.674;2023-06-14T02:52:58;99867.09;;;22.29
18713;BMP280;9485;49.386;8.674;2023-06-14T02:58:18;99872.03;;;22.29
18713;BMP280;9485;49.386;8.674;2023-06-14T03:03:40;99875.56;;;22.20
18713;BMP280;9485;49.386;8.674;2023-06-14T03:09:03;99873.09;;;22.16
18713;BMP280;9485;49.386;8.674;2023-06-14T03:14:25;99877.34;;;22.15
18713;BMP280;9485;49.386;8.674;2023-06-14T03:19:48;99882.13;;;22.13
18713;BMP280;9485;49.386;8.674;2023-06-14T03:25:09;99899.81;;;22.09
18713;BMP280;9485;49.386;8.674;2023-06-14T03:30:32;99901.94;;;22.09
18713;BMP280;9485;49.386;8.674;2023-06-14T03:35:55;99914.50;;;21.96
18713;BMP280;9485;49.386;8.674;2023-06-14T03:41:17;99917.53;;;21.74
18713;BMP280;9485;49.386;8.674;2023-06-14T03:46:37;99926.66;;;21.56
18713;BMP280;9485;49.386;8.674;2023-06-14T03:51:59;99940.72;;;21.37
18713;BMP280;9485;49.386;8.674;2023-06-14T03:57:23;99939.88;;;21.19
18713;BMP280;9485;49.386;8.674;2023-06-14T04:02:44;99950.47;;;21.02
18713;BMP280;9485;49.386;8.674;2023-06-14T04:08:06;99956.06;;;20.93
18713;BMP280;9485;49.386;8.674;2023-06-14T04:13:28;99963.31;;;20.86
18713;BMP280;9485;49.386;8.674;2023-06-14T04:18:49;99964.50;;;20.83
18713;BMP280;9485;49.386;8.674;2023-06-14T04:29:37;99981.13;;;20.70
18713;BMP280;9485;49.386;8.674;2023-06-14T04:35:02;99997.00;;;20.63
18713;BMP280;9485;49.386;8.674;2023-06-14T04:40:25;99993.03;;;20.59
18713;BMP280;9485;49.386;8.674;2023-06-14T04:45:46;99990.72;;;20.57
18713;BMP280;9485;49.386;8.674;2023-06-14T04:51:07;99998.16;;;20.53
18713;BMP280;9485;49.386;8.674;2023-06-14T04:56:29;99995.88;;;20.51
18713;BMP280;9485;49.386;8.674;2023-06-14T05:01:51;100009.47;;;20.51
18713;BMP280;9485;49.386;8.674;2023-06-14T05:07:17;100015.94;;;20.51
18713;BMP280;9485;49.386;8.674;2023-06-14T05:12:40;100032.19;;;20.56
18713;BMP280;9485;49.386;8.674;2023-06-14T05:18:04;100025.53;;;20.61
18713;BMP280;9485;49.386;8.674;2023-06-14T05:23:28;100028.00;;;20.65
18713;BMP280;9485;49.386;8.674;2023-06-14T05:34:13;100028.78;;;20.80
18713;BMP280;9485;49.386;8.674;2023-06-14T05:39:35;100034.88;;;20.92
18713;BMP280;9485;49.386;8.674;2023-06-14T05:44:57;100036.38;;;21.00
18713;BMP280;9485;49.386;8.674;2023-06-14T05:50:19;100038.47;;;21.07
18713;BMP280;9485;49.386;8.674;2023-06-14T05:55:40;100055.47;;;21.20
18713;BMP280;9485;49.386;8.674;2023-06-14T06:01:02;100056.59;;;21.32
18713;BMP280;9485;49.386;8.674;2023-06-14T06:06:23;100066.47;;;21.53
18713;BMP280;9485;49.386;8.674;2023-06-14T06:11:44;100069.91;;;21.67
18713;BMP280;9485;49.386;8.674;2023-06-14T06:17:07;100070.94;;;21.86
18713;BMP280;9485;49.386;8.674;2023-06-14T06:22:29;100076.00;;;22.02
18713;BMP280;9485;49.386;8.674;2023-06-14T06:27:50;100081.34;;;22.06
18713;BMP280;9485;49.386;8.674;2023-06-14T06:33:13;100083.72;;;22.24
18713;BMP280;9485;49.386;8.674;2023-06-14T06:38:35;100087.13;;;22.38
18713;BMP280;9485;49.386;8.674;2023-06-14T06:43:56;100087.03;;;22.53
18713;BMP280;9485;49.386;8.674;2023-06-14T06:49:23;100090.13;;;22.71
18713;BMP280;9485;49.386;8.674;2023-06-14T06:54:44;100100.25;;;22.97
18713;BMP280;9485;49.386;8.674;2023-06-14T07:00:06;100108.28;;;23.23
18713;BMP280;9485;49.386;8.674;2023-06-14T07:05:34;100103.75;;;23.53
18713;BMP280;9485;49.386;8.674;2023-06-14T07:10:55;100103.72;;;23.87
18713;BMP280;9485;49.386;8.674;2023-06-14T07:16:17;100113.13;;;24.31
18713;BMP280;9485;49.386;8.674;2023-06-14T07:21:39;100107.44;;;25.31
18713;BMP280;9485;49.386;8.674;2023-06-14T07:27:00;100133.34;;;29.29
18713;BMP280;9485;49.386;8.674;2023-06-14T07:32:22;100141.50;;;32.25
18713;BMP280;9485;49.386;8.674;2023-06-14T07:37:44;100150.34;;;33.96
18713;BMP280;9485;49.386;8.674;2023-06-14T07:43:06;100164.63;;;35.88
18713;BMP280;9485;49.386;8.674;2023-06-14T07:48:27;100168.06;;;37.34
18713;BMP280;9485;49.386;8.674;2023-06-14T07:53:49;100169.56;;;38.13
18713;BMP280;9485;49.386;8.674;2023-06-14T07:59:10;100163.13;;;38.47
18713;BMP280;9485;49.386;8.674;2023-06-14T08:04:32;100163.47;;;39.24
18713;BMP280;9485;49.386;8.674;2023-06-14T08:09:55;100163.72;;;40.06
18713;BMP280;9485;49.386;8.674;2023-06-14T08:15:16;100165.06;;;40.84
18713;BMP280;9485;49.386;8.674;2023-06-14T08:20:37;100162.97;;;41.46
18713;BMP280;9485;49.386;8.674;2023-06-14T08:26:01;100165.44;;;41.63
18713;BMP280;9485;49.386;8.674;2023-06-14T08:31:24;100169.25;;;41.16
18713;BMP280;9485;49.386;8.674;2023-06-14T08:36:45;100158.88;;;41.74
18713;BMP280;9485;49.386;8.674;2023-06-14T08:42:09;100155.69;;;41.01
18713;BMP280;9485;49.386;8.674;2023-06-14T08:47:32;100162.47;;;41.08
18713;BMP280;9485;49.386;8.674;2023-06-14T08:52:58;100161.97;;;41.25
18713;BMP280;9485;49.386;8.674;2023-06-14T08:58:22;100171.06;;;40.90
18713;BMP280;9485;49.386;8.674;2023-06-14T09:03:44;100158.81;;;40.64
18713;BMP280;9485;49.386;8.674;2023-06-14T09:09:05;100151.59;;;39.91
18713;BMP280;9485;49.386;8.674;2023-06-14T09:14:28;100153.53;;;37.67
18713;BMP280;9485;49.386;8.674;2023-06-14T09:19:50;100144.59;;;36.44
18713;BMP280;9485;49.386;8.674;2023-06-14T09:25:11;100166.63;;;35.62
18713;BMP280;9485;49.386;8.674;2023-06-14T09:30:38;100154.94;;;34.01
18713;BMP280;9485;49.386;8.674;2023-06-14T09:36:00;100156.13;;;33.94
18713;BMP280;9485;49.386;8.674;2023-06-14T09:41:30;100161.63;;;33.86
18713;BMP280;9485;49.386;8.674;2023-06-14T09:46:56;100155.78;;;34.04
18713;BMP280;9485;49.386;8.674;2023-06-14T09:52:18;100154.44;;;33.89
18713;BMP280;9485;49.386;8.674;2023-06-14T09:57:42;100156.16;;;34.12
18713;BMP280;9485;49.386;8.674;2023-06-14T10:03:13;100159.94;;;34.49
18713;BMP280;9485;49.386;8.674;2023-06-14T10:08:37;100159.44;;;35.28
18713;BMP280;9485;49.386;8.674;2023-06-14T10:13:59;100159.91;;;35.40
18713;BMP280;9485;49.386;8.674;2023-06-14T10:19:29;100158.28;;;34.61
18713;BMP280;9485;49.386;8.674;2023-06-14T10:24:56;100155.81;;;34.39
18713;BMP280;9485;49.386;8.674;2023-06-14T10:30:17;100163.75;;;34.88
18713;BMP280;9485;49.386;8.674;2023-06-14T10:35:46;100166.75;;;35.27
18713;BMP280;9485;49.386;8.674;2023-06-14T10:41:07;100152.84;;;35.66
18713;BMP280;9485;49.386;8.674;2023-06-14T10:46:29;100160.16;;;36.27
18713;BMP280;9485;49.386;8.674;2023-06-14T10:51:51;100157.44;;;35.71
18713;BMP280;9485;49.386;8.674;2023-06-14T10:57:12;100161.66;;;35.27
18713;BMP280;9485;49.386;8.674;2023-06-14T11:03:21;100145.25;;;35.21
18713;BMP280;9485;49.386;8.674;2023-06-14T11:09:20;100153.06;;;35.33
18713;BMP280;9485;49.386;8.674;2023-06-14T11:14:47;100147.88;;;35.51
18713;BMP280;9485;49.386;8.674;2023-06-14T11:20:09;100155.66;;;36.03
18713;BMP280;9485;49.386;8.674;2023-06-14T11:25:32;100159.78;;;36.58
18713;BMP280;9485;49.386;8.674;2023-06-14T11:31:00;100155.41;;;35.37
18713;BMP280;9485;49.386;8.674;2023-06-14T11:36:21;100153.53;;;35.65
18713;BMP280;9485;49.386;8.674;2023-06-14T11:41:45;100159.72;;;35.94
18713;BMP280;9485;49.386;8.674;2023-06-14T11:47:06;100160.72;;;35.81
18713;BMP280;9485;49.386;8.674;2023-06-14T11:52:28;100152.75;;;35.25
18713;BMP280;9485;49.386;8.674;2023-06-14T11:57:51;100152.47;;;35.37
18713;BMP280;9485;49.386;8.674;2023-06-14T12:03:14;100150.91;;;34.97
18713;BMP280;9485;49.386;8.674;2023-06-14T12:08:36;100152.59;;;35.02
18713;BMP280;9485;49.386;8.674;2023-06-14T12:14:03;100149.59;;;35.58
18713;BMP280;9485;49.386;8.674;2023-06-14T12:19:26;100138.34;;;34.58
18713;BMP280;9485;49.386;8.674;2023-06-14T12:24:48;100132.31;;;33.86
18713;BMP280;9485;49.386;8.674;2023-06-14T12:30:11;100130.69;;;33.66
18713;BMP280;9485;49.386;8.674;2023-06-14T12:35:33;100128.03;;;34.05
18713;BMP280;9485;49.386;8.674;2023-06-14T12:40:54;100134.25;;;32.85
18713;BMP280;9485;49.386;8.674;2023-06-14T12:46:18;100135.94;;;32.75
18713;BMP280;9485;49.386;8.674;2023-06-14T12:51:39;100132.75;;;33.15
18713;BMP280;9485;49.386;8.674;2023-06-14T12:57:00;100135.47;;;33.75
18713;BMP280;9485;49.386;8.674;2023-06-14T13:02:24;100144.19;;;33.09
18713;BMP280;9485;49.386;8.674;2023-06-14T13:07:47;100145.16;;;32.25
18713;BMP280;9485;49.386;8.674;2023-06-14T13:13:08;100147.34;;;31.69
18713;BMP280;9485;49.386;8.674;2023-06-14T13:18:32;100143.16;;;31.59
18713;BMP280;9485;49.386;8.674;2023-06-14T13:23:53;100139.16;;;31.39
18713;BMP280;9485;49.386;8.674;2023-06-14T13:29:14;100140.22;;;32.43
18713;BMP280;9485;49.386;8.674;2023-06-14T13:34:37;100152.94;;;33.25
18713;BMP280;9485;49.386;8.674;2023-06-14T13:39:58;100160.34;;;34.07
18713;BMP280;9485;49.386;8.674;2023-06-14T13:45:19;100149.03;;;34.34
18713;BMP280;9485;49.386;8.674;2023-06-14T13:50:41;100145.66;;;33.89
18713;BMP280;9485;49.386;8.674;2023-06-14T13:56:03;100136.66;;;33.53
18713;BMP280;9485;49.386;8.674;2023-06-14T14:01:23;100142.22;;;33.95
18713;BMP280;9485;49.386;8.674;2023-06-14T14:06:46;100145.13;;;33.95
18713;BMP280;9485;49.386;8.674;2023-06-14T14:12:08;100148.03;;;33.14
18713;BMP280;9485;49.386;8.674;2023-06-14T14:17:30;100134.94;;;32.40
18713;BMP280;9485;49.386;8.674;2023-06-14T14:22:52;100137.75;;;31.53
18713;BMP280;9485;49.386;8.674;2023-06-14T14:28:13;100134.34;;;30.92
18713;BMP280;9485;49.386;8.674;2023-06-14T14:33:35;100143.25;;;30.44
18713;BMP280;9485;49.386;8.674;2023-06-14T14:38:58;100134.88;;;30.25
18713;BMP280;9485;49.386;8.674;2023-06-14T14:44:19;100140.28;;;30.06
18713;BMP280;9485;49.386;8.674;2023-06-14T14:49:39;100137.06;;;30.38
18713;BMP280;9485;49.386;8.674;2023-06-14T14:55:03;100145.38;;;30.55
18713;BMP280;9485;49.386;8.674;2023-06-14T15:00:25;100131.59;;;30.69
18713;BMP280;9485;49.386;8.674;2023-06-14T15:05:47;100138.78;;;30.93
18713;BMP280;9485;49.386;8.674;2023-06-14T15:11:09;100137.13;;;30.76
18713;BMP280;9485;49.386;8.674;2023-06-14T15:16:30;100139.34;;;30.64
18713;BMP280;9485;49.386;8.674;2023-06-14T15:21:51;100137.06;;;30.38
18713;BMP280;9485;49.386;8.674;2023-06-14T15:27:12;100132.31;;;30.06
18713;BMP280;9485;49.386;8.674;2023-06-14T15:32:33;100134.09;;;30.00
18713;BMP280;9485;49.386;8.674;2023-06-14T15:37:54;100132.97;;;30.05
18713;BMP280;9485;49.386;8.674;2023-06-14T15:43:16;100117.56;;;30.16
18713;BMP280;9485;49.386;8.674;2023-06-14T15:48:38;100113.09;;;30.26
18713;BMP280;9485;49.386;8.674;2023-06-14T15:53:58;100126.97;;;30.14
18713;BMP280;9485;49.386;8.674;2023-06-14T15:59:21;100115.06;;;29.74
18713;BMP280;9485;49.386;8.674;2023-06-14T16:04:42;100122.22;;;29.48
18713;BMP280;9485;49.386;8.674;2023-06-14T16:10:04;100117.66;;;29.34
18713;BMP280;9485;49.386;8.674;2023-06-14T16:15:25;100119.63;;;29.06
18713;BMP280;9485;49.386;8.674;2023-06-14T16:20:46;100121.75;;;28.83
18713;BMP280;9485;49.386;8.674;2023-06-14T16:26:11;100117.91;;;28.46
18713;BMP280;9485;49.386;8.674;2023-06-14T16:31:33;100117.22;;;28.25
18713;BMP280;9485;49.386;8.674;2023-06-14T16:36:54;100120.41;;;28.08
18713;BMP280;9485;49.386;8.674;2023-06-14T16:42:15;100118.72;;;27.94
18713;BMP280;9485;49.386;8.674;2023-06-14T16:47:37;100121.19;;;27.76
18713;BMP280;9485;49.386;8.674;2023-06-14T16:52:58;100124.03;;;27.65
18713;BMP280;9485;49.386;8.674;2023-06-14T16:58:19;100129.72;;;27.53
18713;BMP280;9485;49.386;8.674;2023-06-14T17:03:41;100134.22;;;27.45
18713;BMP280;9485;49.386;8.674;2023-06-14T17:09:02;100144.63;;;27.38
18713;BMP280;9485;49.386;8.674;2023-06-14T17:14:23;100137.22;;;27.26
18713;BMP280;9485;49.386;8.674;2023-06-14T17:19:45;100143.56;;;27.13
18713;BMP280;9485;49.386;8.674;2023-06-14T17:25:08;100155.47;;;27.08
18713;BMP280;9485;49.386;8.674;2023-06-14T17:30:29;100159.72;;;27.16
18713;BMP280;9485;49.386;8.674;2023-06-14T17:35:51;100158.34;;;27.17
18713;BMP280;9485;49.386;8.674;2023-06-14T17:41:12;100154.03;;;27.18
18713;BMP280;9485;49.386;8.674;2023-06-14T17:46:34;100171.78;;;27.13
18713;BMP280;9485;49.386;8.674;2023-06-14T17:51:56;100171.97;;;26.96
18713;BMP280;9485;49.386;8.674;2023-06-14T17:57:17;100173.88;;;26.82
18713;BMP280;9485;49.386;8.674;2023-06-14T18:02:38;100181.25;;;26.64
18713;BMP280;9485;49.386;8.674;2023-06-14T18:08:01;100180.34;;;26.52
18713;BMP280;9485;49.386;8.674;2023-06-14T18:13:21;100178.09;;;26.41
18713;BMP280;9485;49.386;8.674;2023-06-14T18:18:42;100184.81;;;26.25
18713;BMP280;9485;49.386;8.674;2023-06-14T18:24:06;100195.50;;;26.13
18713;BMP280;9485;49.386;8.674;2023-06-14T18:29:26;100204.63;;;26.00
18713;BMP280;9485;49.386;8.674;2023-06-14T18:34:47;100201.59;;;25.88
18713;BMP280;9485;49.386;8.674;2023-06-14T18:40:12;100208.75;;;25.78
18713;BMP280;9485;49.386;8.674;2023-06-14T18:45:33;100204.28;;;25.68
18713;BMP280;9485;49.386;8.674;2023-06-14T18:50:54;100210.47;;;25.55
18713;BMP280;9485;49.386;8.674;2023-06-14T18:56:17;100210.59;;;25.38
18713;BMP280;9485;49.386;8.674;2023-06-14T19:01:37;100214.81;;;25.27
18713;BMP280;9485;49.386;8.674;2023-06-14T19:06:59;100217.53;;;25.16
18713;BMP280;9485;49.386;8.674;2023-06-14T19:12:21;100223.81;;;25.05
18713;BMP280;9485;49.386;8.674;2023-06-14T19:17:53;100222.53;;;24.89
18713;BMP280;9485;49.386;8.674;2023-06-14T19:23:13;100221.84;;;24.72
18713;BMP280;9485;49.386;8.674;2023-06-14T19:28:36;100229.94;;;24.56
18713;BMP280;9485;49.386;8.674;2023-06-14T19:33:56;100240.91;;;24.41
18713;BMP280;9485;49.386;8.674;2023-06-14T19:39:17;100236.69;;;24.25
18713;BMP280;9485;49.386;8.674;2023-06-14T19:44:40;100243.41;;;24.11
18713;BMP280;9485;49.386;8.674;2023-06-14T19:50:00;100243.66;;;23.88
18713;BMP280;9485;49.386;8.674;2023-06-14T19:55:21;100255.88;;;23.79
18713;BMP280;9485;49.386;8.674;2023-06-14T20:00:44;100263.63;;;23.69
18713;BMP280;9485;49.386;8.674;2023-06-14T20:06:06;100266.81;;;23.56
18713;BMP280;9485;49.386;8.674;2023-06-14T20:11:27;100264.84;;;23.42
18713;BMP280;9485;49.386;8.674;2023-06-14T20:16:49;100279.47;;;23.37
18713;BMP280;9485;49.386;8.674;2023-06-14T20:22:10;100277.66;;;23.24
18713;BMP280;9485;49.386;8.674;2023-06-14T20:27:31;100280.59;;;23.17
18713;BMP280;9485;49.386;8.674;2023-06-14T20:32:53;100269.91;;;23.10
18713;BMP280;9485;49.386;8.674;2023-06-14T20:38:13;100278.59;;;23.02
18713;BMP280;9485;49.386;8.674;2023-06-14T20:43:34;100274.72;;;23.00
18713;BMP280;9485;49.386;8.674;2023-06-14T20:48:57;100283.22;;;22.98
18713;BMP280;9485;49.386;8.674;2023-06-14T20:54:17;100273.38;;;23.01
18713;BMP280;9485;49.386;8.674;2023-06-14T20:59:38;100272.25;;;23.04
18713;BMP280;9485;49.386;8.674;2023-06-14T21:05:01;100278.13;;;23.13
18713;BMP280;9485;49.386;8.674;2023-06-14T21:10:22;100275.38;;;23.23
18713;BMP280;9485;49.386;8.674;2023-06-14T21:15:43;100268.59;;;23.28
18713;BMP280;9485;49.386;8.674;2023-06-14T21:21:05;100275.31;;;23.30
18713;BMP280;9485;49.386;8.674;2023-06-14T21:26:28;100268.03;;;23.29
18713;BMP280;9485;49.386;8.674;2023-06-14T21:31:48;100262.09;;;23.27
18713;BMP280;9485;49.386;8.674;2023-06-14T21:37:11;100268.97;;;23.32
18713;BMP280;9485;49.386;8.674;2023-06-14T21:42:31;100274.53;;;23.30
18713;BMP280;9485;49.386;8.674;2023-06-14T21:47:52;100275.13;;;23.28
18713;BMP280;9485;49.386;8.674;2023-06-14T21:53:14;100273.59;;;23.27
18713;BMP280;9485;49.386;8.674;2023-06-14T21:58:35;100274.63;;;23.22
18713;BMP280;9485;49.386;8.674;2023-06-14T22:03:57;100273.13;;;23.14
18713;BMP280;9485;49.386;8.674;2023-06-14T22:09:19;100272.03;;;23.09
18713;BMP280;9485;49.386;8.674;2023-06-14T22:14:40;100277.03;;;23.01
18713;BMP280;9485;49.386;8.674;2023-06-14T22:20:03;100273.63;;;22.95
18713;BMP280;9485;49.386;8.674;2023-06-14T22:25:28;100279.41;;;22.88
18713;BMP280;9485;49.386;8.674;2023-06-14T22:30:48;100292.34;;;22.79
18713;BMP280;9485;49.386;8.674;2023-06-14T22:36:16;100288.91;;;22.73
18713;BMP280;9485;49.386;8.674;2023-06-14T22:41:38;100278.22;;;22.67
18713;BMP280;9485;49.386;8.674;2023-06-14T22:46:59;100303.72;;;22.63
18713;BMP280;9485;49.386;8.674;2023-06-14T22:52:21;100288.22;;;22.58
18713;BMP280;9485;49.386;8.674;2023-06-14T22:57:46;100298.63;;;22.54
18713;BMP280;9485;49.386;8.674;2023-06-14T23:03:09;100289.41;;;22.48
18713;BMP280;9485;49.386;8.674;2023-06-14T23:08:30;100292.28;;;22.48
18713;BMP280;9485;49.386;8.674;2023-06-14T23:13:52;100294.81;;;22.44
18713;BMP280;9485;49.386;8.674;2023-06-14T23:19:13;100294.25;;;22.38
18713;BMP280;9485;49.386;8.674;2023-06-14T23:24:35;100302.50;;;22.34
18713;BMP280;9485;49.386;8.674;2023-06-14T23:29:58;100292.19;;;22.31
18713;BMP280;9485;49.386;8.674;2023-06-14T23:35:19;100295.66;;;22.29
18713;BMP280;9485;49.386;8.674;2023-06-14T23:40:40;100289.47;;;22.25
18713;BMP280;9485;49.386;8.674;2023-06-14T23:46:02;100294.28;;;22.23
18713;BMP280;9485;49.386;8.674;2023-06-14T23:51:24;100289.88;;;22.22
18713;BMP280;9485;49.386;8.674;2023-06-14T23:56:44;100298.13;;;22.18
